Terminal Aerodrome Forecast
Issued by NWS Raleigh/Durham, NC

Home | Current Version | Previous Version | Text Only | Print | Product List | Glossary On
Versions: 1 2 3 4 5 6 7 8 9 10 11 12 13 14 15 16 17 18 19 20 21 22 23 24 25 26 27 28 29 30 31 32 33 34 35 36 37 38 39 40
000
FTUS42 KRAH 040540
TAFFAY
TAF
KFAY 040540Z 0406/0506 18006KT P6SM FEW012 SCT110 SCT250
     FM040900 22006KT P6SM VCSH BKN010
      TEMPO 0411/0413 BKN007
     FM041400 22008KT P6SM FEW020 SCT050 SCT250=

USA.gov is the U.S. government's official web portal to all federal, state and local government web resources and services.